Time,TemperatureF,DewpointF,PressureIn,WindDirection,WindDirectionDegrees,WindSpeedMPH,WindSpeedGustMPH,Humidity,HourlyPrecipIn,Conditions,Clouds,dailyrainin,SoftwareType,DateUTC
2013-09-26 00:01:00,75.8,74.6,29.84,West,261,0.0,0.0,96,0.00,RA,,0.00,WeatherDisplay:10.37,2013-09-26 04:01:00,
2013-09-26 00:02:00,75.8,74.6,29.84,West,263,0.0,0.0,96,0.00,RA,,0.00,WeatherDisplay:10.37,2013-09-26 04:02:00,
2013-09-26 00:07:00,75.9,74.7,29.84,West,263,0.0,0.0,96,0.00,RA,,0.00,WeatherDisplay:10.37,2013-09-26 04:07:00,
2013-09-26 00:12:00,75.9,74.7,29.84,West,263,0.0,0.0,96,0.00,CLR,,0.00,WeatherDisplay:10.37,2013-09-26 04:12:00,
2013-09-26 00:17:00,75.9,74.7,29.84,West,263,0.0,0.0,96,0.00,CLR,,0.00,WeatherDisplay:10.37,2013-09-26 04:17:00,
2013-09-26 00:22:00,75.8,74.6,29.84,West,263,0.0,0.0,96,0.00,CLR,,0.00,WeatherDisplay:10.37,2013-09-26 04:22:00,
2013-09-26 00:27:00,75.8,74.6,29.83,West,263,0.0,0.0,96,0.00,CLR,,0.00,WeatherDisplay:10.37,2013-09-26 04:27:00,
2013-09-26 00:32:00,75.7,74.5,29.83,West,263,0.0,0.0,96,0.00,CLR,,0.00,WeatherDisplay:10.37,2013-09-26 04:32:00,
2013-09-26 00:37:00,75.6,74.4,29.83,West,263,0.0,0.0,96,0.00,CLR,,0.00,WeatherDisplay:10.37,2013-09-26 04:37:00,
2013-09-26 00:42:00,75.5,74.3,29.84,West,263,0.0,0.0,96,0.00,CLR,,0.00,WeatherDisplay:10.37,2013-09-26 04:42:00,
2013-09-26 00:47:00,75.3,74.1,29.84,West,263,0.0,0.0,96,0.00,CLR,,0.00,WeatherDisplay:10.37,2013-09-26 04:47:00,
2013-09-26 00:52:00,75.2,74.0,29.84,West,263,0.0,0.0,96,0.00,CLR,,0.00,WeatherDisplay:10.37,2013-09-26 04:52:00,
2013-09-26 00:57:00,75.2,74.0,29.84,West,263,0.0,0.0,96,0.00,CLR,,0.00,WeatherDisplay:10.37,2013-09-26 04:57:00,
2013-09-26 01:02:00,75.1,73.9,29.83,West,263,0.0,0.0,96,0.00,CLR,,0.00,WeatherDisplay:10.37,2013-09-26 05:02:00,
2013-09-26 01:07:00,75.1,73.9,29.83,West,263,0.0,0.0,96,0.00,CLR,,0.00,WeatherDisplay:10.37,2013-09-26 05:07:00,
2013-09-26 01:12:00,75.0,73.8,29.83,West,263,0.0,0.0,96,0.00,CLR,,0.00,WeatherDisplay:10.37,2013-09-26 05:12:00,
2013-09-26 01:17:00,75.0,73.8,29.83,West,263,0.0,0.0,96,0.00,CLR,,0.00,WeatherDisplay:10.37,2013-09-26 05:17:00,
2013-09-26 01:22:00,75.0,73.8,29.83,West,263,0.0,0.0,96,0.00,CLR,,0.00,WeatherDisplay:10.37,2013-09-26 05:22:00,
2013-09-26 01:27:00,74.9,73.7,29.83,West,262,0.0,0.0,96,0.00,CLR,,0.00,WeatherDisplay:10.37,2013-09-26 05:27:00,
2013-09-26 01:32:00,74.9,73.7,29.83,West,263,0.0,0.0,96,0.00,CLR,,0.00,WeatherDisplay:10.37,2013-09-26 05:32:00,
2013-09-26 01:37:00,74.9,73.7,29.83,West,263,0.0,0.0,96,0.00,CLR,,0.00,WeatherDisplay:10.37,2013-09-26 05:37:00,
2013-09-26 01:42:00,74.9,73.7,29.83,West,263,0.0,0.0,96,0.00,CLR,,0.00,WeatherDisplay:10.37,2013-09-26 05:42:00,
2013-09-26 01:47:00,75.0,73.8,29.83,West,263,0.0,0.0,96,0.00,CLR,,0.00,WeatherDisplay:10.37,2013-09-26 05:47:00,
2013-09-26 01:52:00,75.3,74.4,29.83,West,263,0.0,0.0,97,0.00,CLR,,0.00,WeatherDisplay:10.37,2013-09-26 05:52:00,
2013-09-26 01:57:00,75.5,74.3,29.83,West,261,2.3,2.3,96,0.00,CLR,,0.00,WeatherDisplay:10.37,2013-09-26 05:57:00,
2013-09-26 02:02:00,75.6,74.4,29.83,West,263,0.0,0.0,96,0.00,CLR,,0.00,WeatherDisplay:10.37,2013-09-26 06:02:00,
2013-09-26 02:07:00,75.6,74.4,29.83,West,264,0.0,0.0,96,0.00,CLR,,0.00,WeatherDisplay:10.37,2013-09-26 06:07:00,
2013-09-26 02:12:00,75.6,74.4,29.83,West,261,2.3,0.0,96,0.00,CLR,,0.00,WeatherDisplay:10.37,2013-09-26 06:12:00,
2013-09-26 02:17:00,75.5,74.3,29.83,West,263,0.0,0.0,96,0.00,CLR,,0.00,WeatherDisplay:10.37,2013-09-26 06:17:00,
2013-09-26 02:22:00,75.4,74.2,29.83,West,263,0.0,0.0,96,0.00,CLR,,0.00,WeatherDisplay:10.37,2013-09-26 06:22:00,
2013-09-26 02:27:00,75.3,74.1,29.83,West,263,0.0,0.0,96,0.00,CLR,,0.00,WeatherDisplay:10.37,2013-09-26 06:27:00,
2013-09-26 02:32:00,75.1,74.2,29.83,West,263,0.0,0.0,97,0.00,CLR,,0.00,WeatherDisplay:10.37,2013-09-26 06:32:00,
2013-09-26 02:37:00,75.1,74.2,29.82,West,263,0.0,0.0,97,0.00,CLR,,0.00,WeatherDisplay:10.37,2013-09-26 06:37:00,
2013-09-26 02:42:00,75.0,74.1,29.82,West,263,0.0,0.0,97,0.00,CLR,,0.00,WeatherDisplay:10.37,2013-09-26 06:42:00,
2013-09-26 02:47:00,74.9,73.7,29.82,West,261,0.0,0.0,96,0.00,CLR,,0.00,WeatherDisplay:10.37,2013-09-26 06:47:00,
2013-09-26 02:52:00,75.0,74.1,29.82,West,263,2.3,0.0,97,0.00,CLR,,0.00,WeatherDisplay:10.37,2013-09-26 06:52:00,
2013-09-26 02:57:00,75.1,74.2,29.82,West,263,0.0,0.0,97,0.00,CLR,,0.00,WeatherDisplay:10.37,2013-09-26 06:57:00,
2013-09-26 03:03:00,75.1,74.2,29.82,West,262,0.0,0.0,97,0.00,CLR,,0.00,WeatherDisplay:10.37,2013-09-26 07:03:00,
2013-09-26 03:08:00,75.0,74.1,29.82,West,264,0.0,0.0,97,0.00,CLR,,0.00,WeatherDisplay:10.37,2013-09-26 07:08:00,
2013-09-26 03:13:00,74.9,74.0,29.82,West,263,0.0,0.0,97,0.00,CLR,,0.00,WeatherDisplay:10.37,2013-09-26 07:13:00,
2013-09-26 03:18:00,74.8,73.9,29.82,West,263,0.0,0.0,97,0.00,CLR,,0.00,WeatherDisplay:10.37,2013-09-26 07:18:00,
2013-09-26 03:23:00,74.8,73.9,29.82,West,263,0.0,0.0,97,0.00,CLR,,0.00,WeatherDisplay:10.37,2013-09-26 07:23:00,
2013-09-26 03:28:00,74.8,73.9,29.82,West,263,0.0,0.0,97,0.00,CLR,,0.00,WeatherDisplay:10.37,2013-09-26 07:28:00,
2013-09-26 03:33:00,74.9,74.0,29.82,North,360,0.0,0.0,97,0.00,CLR,,0.00,WeatherDisplay:10.37,2013-09-26 07:33:00,
2013-09-26 03:38:00,74.9,74.0,29.81,West,263,0.0,0.0,97,0.00,CLR,,0.00,WeatherDisplay:10.37,2013-09-26 07:38:00,
2013-09-26 03:43:00,74.9,74.0,29.82,West,263,2.3,0.0,97,0.00,CLR,,0.00,WeatherDisplay:10.37,2013-09-26 07:43:00,
2013-09-26 03:46:00,75.0,74.1,29.81,West,263,2.3,0.0,97,0.00,CLR,,0.00,WeatherDisplay:10.37,2013-09-26 07:46:00,
2013-09-26 03:59:00,75.4,74.5,29.81,West,261,1.2,0.0,97,0.00,CLR,,0.00,WeatherDisplay:10.37,2013-09-26 07:59:00,
2013-09-26 04:04:00,75.4,74.5,29.81,West,263,0.0,0.0,97,0.00,CLR,,0.00,WeatherDisplay:10.37,2013-09-26 08:04:00,
2013-09-26 04:09:00,75.5,74.6,29.81,West,263,1.2,0.0,97,0.00,CLR,,0.00,WeatherDisplay:10.37,2013-09-26 08:09:00,
2013-09-26 04:14:00,75.4,74.5,29.81,West,263,0.0,0.0,97,0.00,CLR,,0.00,WeatherDisplay:10.37,2013-09-26 08:14:00,
2013-09-26 04:19:00,75.4,74.5,29.81,West,263,0.0,0.0,97,0.00,CLR,,0.00,WeatherDisplay:10.37,2013-09-26 08:19:00,
2013-09-26 04:24:00,75.5,74.6,29.81,West,263,2.3,2.3,97,0.00,CLR,,0.00,WeatherDisplay:10.37,2013-09-26 08:24:00,
2013-09-26 04:29:00,75.6,74.7,29.81,West,262,2.3,0.0,97,0.00,CLR,,0.00,WeatherDisplay:10.37,2013-09-26 08:29:00,
2013-09-26 04:34:00,75.5,74.6,29.81,West,263,0.0,0.0,97,0.00,CLR,,0.00,WeatherDisplay:10.37,2013-09-26 08:34:00,
2013-09-26 04:39:00,75.5,74.6,29.81,West,261,1.2,0.0,97,0.00,CLR,,0.00,WeatherDisplay:10.37,2013-09-26 08:39:00,
2013-09-26 04:44:00,75.5,74.6,29.81,West,263,0.0,0.0,97,0.00,CLR,,0.00,WeatherDisplay:10.37,2013-09-26 08:44:00,
2013-09-26 04:49:00,75.5,74.6,29.81,West,262,0.0,0.0,97,0.00,CLR,,0.00,WeatherDisplay:10.37,2013-09-26 08:49:00,
2013-09-26 04:54:00,75.5,74.6,29.81,West,263,2.3,2.3,97,0.00,CLR,,0.00,WeatherDisplay:10.37,2013-09-26 08:54:00,
2013-09-26 04:59:00,75.5,74.6,29.81,West,262,0.0,0.0,97,0.00,CLR,,0.00,WeatherDisplay:10.37,2013-09-26 08:59:00,
2013-09-26 05:04:00,75.4,74.5,29.81,West,263,0.0,0.0,97,0.00,CLR,,0.00,WeatherDisplay:10.37,2013-09-26 09:04:00,
2013-09-26 05:09:00,75.3,74.4,29.81,West,263,0.0,0.0,97,0.00,CLR,,0.00,WeatherDisplay:10.37,2013-09-26 09:09:00,
2013-09-26 05:14:00,75.2,74.3,29.82,West,263,0.0,0.0,97,0.00,CLR,,0.00,WeatherDisplay:10.37,2013-09-26 09:14:00,
2013-09-26 05:19:00,75.2,74.3,29.82,North,360,1.2,0.0,97,0.00,CLR,,0.00,WeatherDisplay:10.37,2013-09-26 09:19:00,
2013-09-26 05:24:00,75.2,74.3,29.82,West,264,0.0,0.0,97,0.00,CLR,,0.00,WeatherDisplay:10.37,2013-09-26 09:24:00,
2013-09-26 05:29:00,75.1,74.2,29.82,North,360,0.0,0.0,97,0.00,CLR,,0.00,WeatherDisplay:10.37,2013-09-26 09:29:00,
2013-09-26 05:34:00,75.0,74.1,29.82,North,360,0.0,0.0,97,0.00,CLR,,0.00,WeatherDisplay:10.37,2013-09-26 09:34:00,
2013-09-26 05:39:00,75.0,74.1,29.82,West,262,0.0,0.0,97,0.00,CLR,,0.00,WeatherDisplay:10.37,2013-09-26 09:39:00,
2013-09-26 05:44:00,75.0,74.1,29.82,West,263,0.0,0.0,97,0.00,CLR,,0.00,WeatherDisplay:10.37,2013-09-26 09:44:00,
2013-09-26 05:49:00,74.9,74.0,29.82,West,261,0.0,0.0,97,0.00,CLR,,0.00,WeatherDisplay:10.37,2013-09-26 09:49:00,
2013-09-26 05:54:00,74.8,73.9,29.82,West,263,0.0,0.0,97,0.00,CLR,,0.00,WeatherDisplay:10.37,2013-09-26 09:54:00,
2013-09-26 05:59:00,74.7,73.8,29.82,North,360,0.0,0.0,97,0.00,CLR,,0.00,WeatherDisplay:10.37,2013-09-26 09:59:00,
2013-09-26 06:04:00,74.6,73.7,29.83,North,360,0.0,0.0,97,0.00,CLR,,0.00,WeatherDisplay:10.37,2013-09-26 10:04:00,
2013-09-26 06:09:00,74.6,73.7,29.83,North,360,0.0,0.0,97,0.00,CLR,,0.00,WeatherDisplay:10.37,2013-09-26 10:09:00,
2013-09-26 06:14:00,74.4,73.5,29.83,West,263,0.0,0.0,97,0.00,CLR,,0.00,WeatherDisplay:10.37,2013-09-26 10:14:00,
2013-09-26 06:19:00,74.4,73.5,29.83,West,264,0.0,0.0,97,0.00,CLR,,0.00,WeatherDisplay:10.37,2013-09-26 10:19:00,
2013-09-26 06:24:00,74.4,73.5,29.83,West,262,0.0,0.0,97,0.00,CLR,,0.00,WeatherDisplay:10.37,2013-09-26 10:24:00,
2013-09-26 06:29:00,74.4,73.5,29.83,North,360,0.0,0.0,97,0.00,CLR,,0.00,WeatherDisplay:10.37,2013-09-26 10:29:00,
2013-09-26 06:34:00,74.6,73.7,29.83,West,262,1.2,0.0,97,0.00,CLR,,0.00,WeatherDisplay:10.37,2013-09-26 10:34:00,
2013-09-26 06:39:00,74.8,73.9,29.83,West,262,0.0,0.0,97,0.00,CLR,,0.00,WeatherDisplay:10.37,2013-09-26 10:39:00,
2013-09-26 06:44:00,74.9,74.0,29.83,West,263,0.0,0.0,97,0.00,CLR,,0.00,WeatherDisplay:10.37,2013-09-26 10:44:00,
2013-09-26 06:49:00,75.0,74.1,29.83,West,263,2.3,0.0,97,0.00,CLR,,0.00,WeatherDisplay:10.37,2013-09-26 10:49:00,
2013-09-26 06:52:00,75.2,74.3,29.83,West,263,2.3,0.0,97,0.00,CLR,,0.00,WeatherDisplay:10.37,2013-09-26 10:52:00,
2013-09-26 06:54:00,75.2,74.3,29.83,West,263,2.3,0.0,97,0.00,CLR,,0.00,WeatherDisplay:10.37,2013-09-26 10:54:00,
2013-09-26 06:59:00,75.2,74.3,29.83,West,263,2.3,0.0,97,0.00,CLR,,0.00,WeatherDisplay:10.37,2013-09-26 10:59:00,
2013-09-26 07:07:00,75.2,74.3,29.83,West,263,2.3,0.0,97,0.00,CLR,,0.00,WeatherDisplay:10.37,2013-09-26 11:07:00,
2013-09-26 07:16:00,75.2,74.3,29.83,West,263,2.3,0.0,97,0.00,CLR,,0.00,WeatherDisplay:10.37,2013-09-26 11:16:00,
2013-09-26 07:49:00,75.2,74.3,29.83,West,263,2.3,0.0,97,0.00,CLR,,0.00,WeatherDisplay:10.37,2013-09-26 11:49:00,
2013-09-26 07:54:00,75.2,74.3,29.83,West,263,2.3,0.0,97,0.00,CLR,,0.00,WeatherDisplay:10.37,2013-09-26 11:54:00,
2013-09-26 07:59:00,75.2,74.3,29.83,West,263,2.3,0.0,97,0.00,CLR,,0.00,WeatherDisplay:10.37,2013-09-26 11:59:00,
2013-09-26 08:05:00,75.2,74.3,29.83,West,263,2.3,0.0,97,0.00,CLR,,0.00,WeatherDisplay:10.37,2013-09-26 12:05:00,
2013-09-26 08:53:00,75.2,74.3,29.83,West,263,2.3,0.0,97,0.00,CLR,,0.00,WeatherDisplay:10.37,2013-09-26 12:53:00,
2013-09-26 09:01:00,75.2,74.3,29.83,West,263,2.3,0.0,97,0.00,CLR,,0.00,WeatherDisplay:10.37,2013-09-26 13:01:00,
2013-09-26 09:07:00,75.2,74.3,29.83,West,263,2.3,0.0,97,0.00,CLR,,0.00,WeatherDisplay:10.37,2013-09-26 13:07:00,
2013-09-26 10:30:00,75.2,74.3,29.83,West,263,2.3,0.0,97,0.00,CLR,,0.00,WeatherDisplay:10.37,2013-09-26 14:30:00,
2013-09-26 11:01:00,75.2,74.3,29.83,West,263,2.3,0.0,97,0.00,CLR,,0.00,WeatherDisplay:10.37,2013-09-26 15:01:00,
2013-09-26 11:09:00,75.2,74.3,29.83,West,263,2.3,0.0,97,0.00,CLR,,0.00,WeatherDisplay:10.37,2013-09-26 15:09:00,
2013-09-26 11:15:00,75.2,74.3,29.83,West,263,2.3,0.0,97,0.00,CLR,,0.00,WeatherDisplay:10.37,2013-09-26 15:15:00,
2013-09-26 11:24:00,75.2,74.3,29.83,West,263,2.3,0.0,97,0.00,CLR,,0.00,WeatherDisplay:10.37,2013-09-26 15:24:00,
2013-09-26 11:35:00,75.2,74.3,29.83,West,263,2.3,0.0,97,0.00,CLR,,0.00,WeatherDisplay:10.37,2013-09-26 15:35:00,
2013-09-26 11:40:00,75.2,74.3,29.83,West,263,2.3,0.0,97,0.00,CLR,,0.00,WeatherDisplay:10.37,2013-09-26 15:40:00,
2013-09-26 11:51:00,75.2,74.3,29.83,West,263,2.3,0.0,97,0.00,CLR,,0.00,WeatherDisplay:10.37,2013-09-26 15:51:00,
2013-09-26 11:56:00,75.2,74.3,29.83,West,263,2.3,0.0,97,0.00,CLR,,0.00,WeatherDisplay:10.37,2013-09-26 15:56:00,
2013-09-26 12:06:00,75.2,74.3,29.83,West,263,2.3,0.0,97,0.00,CLR,,0.00,WeatherDisplay:10.37,2013-09-26 16:06:00,
2013-09-26 12:19:00,75.2,74.3,29.83,West,263,2.3,0.0,97,0.00,CLR,,0.00,WeatherDisplay:10.37,2013-09-26 16:19:00,
2013-09-26 12:30:00,75.2,74.3,29.83,West,263,2.3,0.0,97,0.00,CLR,,0.00,WeatherDisplay:10.37,2013-09-26 16:30:00,
2013-09-26 12:35:00,75.2,74.3,29.83,West,263,2.3,0.0,97,0.00,CLR,,0.00,WeatherDisplay:10.37,2013-09-26 16:35:00,
2013-09-26 12:40:00,75.2,74.3,29.83,West,263,2.3,0.0,97,0.00,CLR,,0.00,WeatherDisplay:10.37,2013-09-26 16:40:00,
2013-09-26 12:48:00,75.2,74.3,29.83,West,263,2.3,0.0,97,0.00,CLR,,0.00,WeatherDisplay:10.37,2013-09-26 16:48:00,
2013-09-26 12:53:00,75.2,74.3,29.83,West,263,2.3,0.0,97,0.00,CLR,,0.00,WeatherDisplay:10.37,2013-09-26 16:53:00,
2013-09-26 13:01:00,75.2,74.3,29.83,West,263,2.3,0.0,97,0.00,CLR,,0.00,WeatherDisplay:10.37,2013-09-26 17:01:00,
2013-09-26 13:11:00,75.2,74.3,29.83,West,263,2.3,0.0,97,0.00,CLR,,0.00,WeatherDisplay:10.37,2013-09-26 17:11:00,
2013-09-26 13:19:00,75.2,74.3,29.83,West,263,2.3,0.0,97,0.00,CLR,,0.00,WeatherDisplay:10.37,2013-09-26 17:19:00,
2013-09-26 13:38:00,75.2,74.3,29.83,West,263,2.3,0.0,97,0.00,CLR,,0.00,WeatherDisplay:10.37,2013-09-26 17:38:00,
2013-09-26 13:47:00,75.2,74.3,29.83,West,263,2.3,0.0,97,0.00,CLR,,0.00,WeatherDisplay:10.37,2013-09-26 17:47:00,
2013-09-26 13:57:00,75.2,74.3,29.83,West,263,2.3,0.0,97,0.00,CLR,,0.00,WeatherDisplay:10.37,2013-09-26 17:57:00,
2013-09-26 14:04:00,75.2,74.3,29.83,West,263,2.3,0.0,97,0.00,CLR,,0.00,WeatherDisplay:10.37,2013-09-26 18:04:00,
2013-09-26 14:18:00,75.2,74.3,29.83,West,263,2.3,0.0,97,0.00,CLR,,0.00,WeatherDisplay:10.37,2013-09-26 18:18:00,
2013-09-26 14:47:00,75.2,74.3,29.83,West,263,2.3,0.0,97,0.00,CLR,,0.00,WeatherDisplay:10.37,2013-09-26 18:47:00,
2013-09-26 14:53:00,75.2,74.3,29.83,West,263,2.3,0.0,97,0.00,CLR,,0.00,WeatherDisplay:10.37,2013-09-26 18:53:00,
2013-09-26 15:39:00,75.2,74.3,29.83,West,263,2.3,0.0,97,0.00,CLR,,0.00,WeatherDisplay:10.37,2013-09-26 19:39:00,
2013-09-26 16:26:00,75.2,74.3,29.83,West,263,2.3,0.0,97,0.00,CLR,,0.00,WeatherDisplay:10.37,2013-09-26 20:26:00,
2013-09-26 16:33:00,75.2,74.3,29.83,West,263,2.3,0.0,97,0.00,CLR,,0.00,WeatherDisplay:10.37,2013-09-26 20:33:00,
2013-09-26 16:38:00,75.2,74.3,29.83,West,263,2.3,0.0,97,0.00,CLR,,0.00,WeatherDisplay:10.37,2013-09-26 20:38:00,
2013-09-26 16:54:00,75.2,74.3,29.83,West,263,2.3,0.0,97,0.00,CLR,,0.00,WeatherDisplay:10.37,2013-09-26 20:54:00,
2013-09-26 17:09:00,75.2,74.3,29.83,West,263,2.3,0.0,97,0.00,CLR,,0.00,WeatherDisplay:10.37,2013-09-26 21:09:00,
2013-09-26 17:20:00,75.2,74.3,29.83,West,263,2.3,0.0,97,0.00,CLR,,0.00,WeatherDisplay:10.37,2013-09-26 21:20:00,
2013-09-26 17:50:00,75.2,74.3,29.83,West,263,2.3,0.0,97,0.00,CLR,,0.00,WeatherDisplay:10.37,2013-09-26 21:50:00,
2013-09-26 18:00:00,75.2,74.3,29.83,West,263,2.3,0.0,97,0.00,CLR,,0.00,WeatherDisplay:10.37,2013-09-26 22:00:00,
2013-09-26 18:23:00,75.2,74.3,29.83,West,263,2.3,0.0,97,0.00,CLR,,0.00,WeatherDisplay:10.37,2013-09-26 22:23:00,
2013-09-26 18:40:00,75.2,74.3,29.83,West,263,2.3,0.0,97,0.00,CLR,,0.00,WeatherDisplay:10.37,2013-09-26 22:40:00,
2013-09-26 18:49:00,75.2,74.3,29.83,West,263,2.3,0.0,97,0.00,CLR,,0.00,WeatherDisplay:10.37,2013-09-26 22:49:00,
2013-09-26 19:00:00,75.2,74.3,29.83,West,263,2.3,0.0,97,0.00,CLR,,0.00,WeatherDisplay:10.37,2013-09-26 23:00:00,
2013-09-26 19:13:00,75.2,74.3,29.83,West,263,2.3,0.0,97,0.00,CLR,,0.00,WeatherDisplay:10.37,2013-09-26 23:13:00,
2013-09-26 19:36:00,75.2,74.3,29.83,West,263,2.3,0.0,97,0.00,CLR,,0.00,WeatherDisplay:10.37,2013-09-26 23:36:00,
2013-09-26 20:34:00,75.2,74.3,29.83,West,263,2.3,0.0,97,0.00,CLR,,0.00,WeatherDisplay:10.37,2013-09-27 00:34:00,
2013-09-26 20:57:00,75.2,74.3,29.83,West,263,2.3,0.0,97,0.00,CLR,,0.00,WeatherDisplay:10.37,2013-09-27 00:57:00,
2013-09-26 21:04:00,75.2,74.3,29.83,West,263,2.3,0.0,97,0.00,CLR,,0.00,WeatherDisplay:10.37,2013-09-27 01:04:00,
2013-09-26 21:26:00,75.2,74.3,29.83,West,263,2.3,0.0,97,0.00,CLR,,0.00,WeatherDisplay:10.37,2013-09-27 01:26:00,
2013-09-26 21:35:00,75.2,74.3,29.83,West,263,2.3,0.0,97,0.00,CLR,,0.00,WeatherDisplay:10.37,2013-09-27 01:35:00,
2013-09-26 21:49:00,75.2,74.3,29.83,West,263,2.3,0.0,97,0.00,CLR,,0.00,WeatherDisplay:10.37,2013-09-27 01:49:00,
2013-09-26 22:04:00,75.2,74.3,29.83,West,263,2.3,0.0,97,0.00,CLR,,0.00,WeatherDisplay:10.37,2013-09-27 02:04:00,
2013-09-26 22:32:00,75.2,74.3,29.83,West,263,2.3,0.0,97,0.00,CLR,,0.00,WeatherDisplay:10.37,2013-09-27 02:32:00,
2013-09-26 22:40:00,75.2,74.3,29.83,West,263,2.3,0.0,97,0.00,CLR,,0.00,WeatherDisplay:10.37,2013-09-27 02:40:00,
2013-09-26 22:45:00,75.2,74.3,29.83,West,263,2.3,0.0,97,0.00,CLR,,0.00,WeatherDisplay:10.37,2013-09-27 02:45:00,
2013-09-26 22:51:00,75.2,74.3,29.83,West,263,2.3,0.0,97,0.00,CLR,,0.00,WeatherDisplay:10.37,2013-09-27 02:51:00,
2013-09-26 23:09:00,75.2,74.3,29.83,West,263,2.3,0.0,97,0.00,CLR,,0.00,WeatherDisplay:10.37,2013-09-27 03:09:00,
2013-09-26 23:30:00,75.2,74.3,29.83,West,263,2.3,0.0,97,0.00,CLR,,0.00,WeatherDisplay:10.37,2013-09-27 03:30:00,
2013-09-26 23:54:00,75.2,74.3,29.83,West,263,2.3,0.0,97,0.00,CLR,,0.00,WeatherDisplay:10.37,2013-09-27 03:54:00,
2013-09-26 23:59:00,75.2,74.3,29.83,West,263,2.3,0.0,97,0.00,CLR,,0.00,WeatherDisplay:10.37,2013-09-27 03:59:00,